createdAt,value
2022-11-30T00:00:37.702Z,3.90
2022-11-30T00:03:06.133Z,4.10
2022-11-30T00:05:33.540Z,4.10
2022-11-30T00:08:01.938Z,4.10
2022-11-30T00:10:29.405Z,4.00
2022-11-30T00:12:56.939Z,4.00
2022-11-30T00:15:25.517Z,4.00
2022-11-30T00:17:56.252Z,4.00
2022-11-30T00:20:24.535Z,4.00
2022-11-30T00:22:53.773Z,4.00
2022-11-30T00:25:21.300Z,4.00
2022-11-30T00:27:49.591Z,4.00
2022-11-30T00:30:17.165Z,3.90
2022-11-30T00:32:44.670Z,3.90
2022-11-30T00:35:12.209Z,3.90
2022-11-30T00:37:39.769Z,3.80
2022-11-30T00:40:07.335Z,3.80
2022-11-30T00:42:34.851Z,4.00
2022-11-30T00:45:02.432Z,4.00
2022-11-30T00:47:29.968Z,4.00
2022-11-30T00:49:57.492Z,3.90
2022-11-30T00:52:25.855Z,3.80
2022-11-30T00:54:53.379Z,3.80
2022-11-30T00:57:20.935Z,3.80
2022-11-30T00:59:48.500Z,3.90
2022-11-30T01:02:16.056Z,3.90
2022-11-30T01:04:43.656Z,3.80
2022-11-30T01:07:11.121Z,3.80
2022-11-30T01:09:39.404Z,3.60
2022-11-30T01:12:07.699Z,3.60
2022-11-30T01:14:35.290Z,3.60
2022-11-30T01:17:02.843Z,3.60
2022-11-30T01:19:30.356Z,3.50
2022-11-30T01:21:57.925Z,3.50
2022-11-30T01:24:25.450Z,3.50
2022-11-30T01:26:52.974Z,3.50
2022-11-30T01:29:20.558Z,3.50
2022-11-30T01:31:48.179Z,3.70
2022-11-30T01:34:16.451Z,3.70
2022-11-30T01:36:44.031Z,3.70
2022-11-30T01:39:11.554Z,3.70
2022-11-30T01:41:39.857Z,3.70
2022-11-30T01:44:07.432Z,3.60
2022-11-30T01:46:35.037Z,3.70
2022-11-30T01:49:11.413Z,3.70
2022-11-30T01:51:46.714Z,3.90
2022-11-30T01:54:14.257Z,3.90
2022-11-30T01:56:41.765Z,3.80
2022-11-30T01:59:10.677Z,3.70
2022-11-30T02:01:38.234Z,3.70
2022-11-30T02:04:09.392Z,3.60
2022-11-30T02:06:36.965Z,3.50
2022-11-30T02:09:04.508Z,3.50
2022-11-30T02:11:32.034Z,3.50
2022-11-30T02:14:02.167Z,3.50
2022-11-30T02:16:47.870Z,3.70
2022-11-30T02:19:21.253Z,3.70
2022-11-30T02:21:57.648Z,3.70
2022-11-30T02:24:31.842Z,3.70
2022-11-30T02:27:02.022Z,3.60
2022-11-30T02:29:29.557Z,3.60
2022-11-30T02:32:09.059Z,3.60
2022-11-30T02:34:36.599Z,3.80
2022-11-30T02:37:04.124Z,3.80
2022-11-30T02:39:31.836Z,3.80
2022-11-30T02:41:59.361Z,3.80
2022-11-30T02:44:26.889Z,3.70
2022-11-30T02:46:57.964Z,3.70
2022-11-30T02:49:31.929Z,3.70
2022-11-30T02:51:59.485Z,3.70
2022-11-30T02:54:27.069Z,3.70
2022-11-30T02:56:54.594Z,3.70
2022-11-30T02:59:22.119Z,3.70
2022-11-30T03:01:50.492Z,3.60
2022-11-30T03:04:17.985Z,3.60
2022-11-30T03:06:45.509Z,3.70
2022-11-30T03:09:13.845Z,3.70
2022-11-30T03:11:41.367Z,3.70
2022-11-30T03:14:08.893Z,3.70
2022-11-30T03:16:36.505Z,3.70
2022-11-30T03:19:04.030Z,3.80
2022-11-30T03:21:32.324Z,3.80
2022-11-30T03:23:59.888Z,3.80
2022-11-30T03:26:27.413Z,3.80
2022-11-30T03:28:55.705Z,3.80
2022-11-30T03:31:24.086Z,3.80
2022-11-30T03:33:51.572Z,3.80
2022-11-30T03:36:19.106Z,3.80
2022-11-30T03:38:46.682Z,3.80
2022-11-30T03:41:14.217Z,3.80
2022-11-30T03:43:42.510Z,3.80
2022-11-30T03:46:10.204Z,3.80
2022-11-30T03:48:37.706Z,3.80
2022-11-30T03:51:06.020Z,3.80
2022-11-30T03:53:33.573Z,3.80
2022-11-30T03:56:01.113Z,3.80
2022-11-30T03:58:29.400Z,3.80
2022-11-30T04:01:00.065Z,3.80
2022-11-30T04:03:27.582Z,3.80
2022-11-30T04:05:55.106Z,3.90
2022-11-30T04:08:22.681Z,3.90
2022-11-30T04:10:53.990Z,3.90
2022-11-30T04:13:21.534Z,3.90
2022-11-30T04:15:49.148Z,3.90
2022-11-30T04:18:16.611Z,3.90
2022-11-30T04:20:44.903Z,4.00
2022-11-30T04:23:12.468Z,4.00
2022-11-30T04:25:39.994Z,4.00
2022-11-30T04:28:08.295Z,4.00
2022-11-30T04:30:35.867Z,4.00
2022-11-30T04:33:03.395Z,4.00
2022-11-30T04:35:31.687Z,3.90
2022-11-30T04:38:00.581Z,4.00
2022-11-30T04:40:28.105Z,3.90
2022-11-30T04:42:55.640Z,4.00
2022-11-30T04:45:23.215Z,4.00
2022-11-30T04:47:50.748Z,4.00
2022-11-30T04:50:18.284Z,4.10
2022-11-30T04:52:46.154Z,4.30
2022-11-30T04:55:13.687Z,4.30
2022-11-30T04:57:41.991Z,4.30
2022-11-30T05:00:09.791Z,4.30
2022-11-30T05:02:37.316Z,4.30
2022-11-30T05:05:04.840Z,4.40
2022-11-30T05:07:33.578Z,4.40
2022-11-30T05:10:01.071Z,4.30
2022-11-30T05:12:28.598Z,4.40
2022-11-30T05:14:56.437Z,4.40
2022-11-30T05:17:23.961Z,4.40
2022-11-30T05:19:52.275Z,4.40
2022-11-30T05:22:19.848Z,4.40
2022-11-30T05:24:47.646Z,4.40
2022-11-30T05:27:20.902Z,4.50
2022-11-30T05:29:42.983Z,4.50
2022-11-30T05:32:11.286Z,4.60
2022-11-30T05:34:50.187Z,4.50
2022-11-30T05:37:07.154Z,4.60
2022-11-30T05:39:34.688Z,4.60
2022-11-30T05:42:02.214Z,4.60
2022-11-30T05:44:30.586Z,4.70
2022-11-30T05:46:58.164Z,4.70
2022-11-30T05:49:25.664Z,4.70
2022-11-30T05:51:53.220Z,4.70
2022-11-30T05:54:20.744Z,4.70
2022-11-30T05:56:53.107Z,4.80
2022-11-30T05:59:16.605Z,4.80
2022-11-30T06:01:44.244Z,4.80
2022-11-30T06:04:12.419Z,4.80
2022-11-30T06:06:40.051Z,4.80
2022-11-30T06:09:07.591Z,4.80
2022-11-30T06:11:35.110Z,4.80
2022-11-30T06:14:02.684Z,4.80
2022-11-30T06:16:30.262Z,4.80
2022-11-30T06:18:57.755Z,4.80
2022-11-30T06:21:26.157Z,4.80
2022-11-30T06:23:53.697Z,4.80
2022-11-30T06:26:21.993Z,4.80
2022-11-30T06:28:49.558Z,4.80
2022-11-30T06:31:17.127Z,4.90
2022-11-30T06:33:45.386Z,5.00
2022-11-30T06:36:13.265Z,5.00
2022-11-30T06:38:40.789Z,5.00
2022-11-30T06:41:09.129Z,5.10
2022-11-30T06:43:36.666Z,5.10
2022-11-30T06:46:04.275Z,5.10
2022-11-30T06:48:31.725Z,5.10
2022-11-30T06:50:59.312Z,5.20
2022-11-30T06:53:27.596Z,5.20
2022-11-30T06:55:55.128Z,5.20
2022-11-30T06:58:23.461Z,5.20
2022-11-30T07:00:51.015Z,5.20
2022-11-30T07:03:18.529Z,5.30
2022-11-30T07:05:47.453Z,5.30
2022-11-30T07:08:14.981Z,5.30
2022-11-30T07:10:45.441Z,5.30
2022-11-30T07:13:15.541Z,5.30
2022-11-30T07:15:43.085Z,5.40
2022-11-30T07:18:11.385Z,5.40
2022-11-30T07:20:38.966Z,5.40
2022-11-30T07:23:24.546Z,5.40
2022-11-30T07:26:07.145Z,5.40
2022-11-30T07:28:34.681Z,5.40
2022-11-30T07:31:02.981Z,5.50
2022-11-30T07:33:30.557Z,5.40
2022-11-30T07:35:58.100Z,5.50
2022-11-30T07:38:25.626Z,5.50
2022-11-30T07:40:53.968Z,5.50
2022-11-30T07:43:21.533Z,5.50
2022-11-30T07:45:51.770Z,5.50
2022-11-30T07:48:19.349Z,5.80
2022-11-30T07:50:50.182Z,6.10
2022-11-30T07:53:18.495Z,6.00
2022-11-30T07:55:46.049Z,6.00
2022-11-30T07:58:17.339Z,6.00
2022-11-30T08:00:41.914Z,5.90
2022-11-30T08:03:09.441Z,5.90
2022-11-30T08:05:36.966Z,6.10
2022-11-30T08:08:05.261Z,6.00
2022-11-30T08:10:32.832Z,6.00
2022-11-30T08:13:00.374Z,5.90
2022-11-30T08:15:32.564Z,5.80
2022-11-30T08:17:56.236Z,5.80
2022-11-30T08:20:23.816Z,5.80
2022-11-30T08:22:52.053Z,5.80
2022-11-30T08:25:19.668Z,5.80
2022-11-30T08:27:47.191Z,5.80
2022-11-30T08:30:14.716Z,5.90
2022-11-30T08:32:43.048Z,5.90
2022-11-30T08:35:10.573Z,5.90
2022-11-30T08:37:38.102Z,5.90
2022-11-30T08:40:06.548Z,6.00
2022-11-30T08:42:34.083Z,6.00
2022-11-30T08:45:01.959Z,6.10
2022-11-30T08:47:29.989Z,6.40
2022-11-30T08:49:57.468Z,6.40
2022-11-30T08:52:25.000Z,6.40
2022-11-30T08:54:53.450Z,6.40
2022-11-30T08:57:20.878Z,6.40
2022-11-30T08:59:48.460Z,6.50
2022-11-30T09:02:19.200Z,6.70
2022-11-30T09:04:47.024Z,6.80
2022-11-30T09:07:14.549Z,6.80
2022-11-30T09:09:42.931Z,6.80
2022-11-30T09:12:11.234Z,7.10
2022-11-30T09:14:38.906Z,7.00
2022-11-30T09:17:06.480Z,7.10
2022-11-30T09:19:34.048Z,7.00
2022-11-30T09:22:01.580Z,7.00
2022-11-30T09:24:29.753Z,7.00
2022-11-30T09:26:57.282Z,7.00
2022-11-30T09:29:25.573Z,7.10
2022-11-30T09:31:53.147Z,7.10
2022-11-30T09:34:20.671Z,7.10
2022-11-30T09:36:48.965Z,7.20
2022-11-30T09:39:16.557Z,7.20
2022-11-30T09:41:50.240Z,7.20
2022-11-30T09:44:30.385Z,7.30
2022-11-30T09:47:00.608Z,7.50
2022-11-30T09:49:28.132Z,7.80
2022-11-30T09:51:55.709Z,7.90
2022-11-30T09:54:23.232Z,7.80
2022-11-30T09:56:50.768Z,7.80
2022-11-30T09:59:21.876Z,7.80
2022-11-30T10:01:56.378Z,8.00
2022-11-30T10:04:29.509Z,8.00
2022-11-30T10:07:17.849Z,8.00
2022-11-30T10:12:36.864Z,8.10
2022-11-30T10:15:07.116Z,8.10
2022-11-30T10:17:46.446Z,8.10
2022-11-30T10:20:25.747Z,8.10
2022-11-30T10:23:15.223Z,8.10
2022-11-30T10:26:06.905Z,8.10
2022-11-30T10:28:52.517Z,8.20
2022-11-30T10:31:26.000Z,8.20
2022-11-30T10:33:53.447Z,8.20
2022-11-30T10:36:38.999Z,8.30
2022-11-30T10:39:09.615Z,8.40
2022-11-30T10:41:36.826Z,8.40
2022-11-30T10:44:19.740Z,8.50
2022-11-30T10:46:47.297Z,8.50
2022-11-30T10:49:18.346Z,8.60
2022-11-30T10:51:45.929Z,8.60
2022-11-30T10:54:19.215Z,8.70
2022-11-30T10:56:46.738Z,8.70
2022-11-30T10:59:18.113Z,8.80
2022-11-30T11:01:45.715Z,8.80
2022-11-30T11:04:13.253Z,8.80
2022-11-30T11:06:51.027Z,9.00
2022-11-30T11:09:27.736Z,9.00
2022-11-30T11:11:55.314Z,9.00
2022-11-30T11:14:23.623Z,9.30
2022-11-30T11:17:00.602Z,9.30
2022-11-30T11:19:34.082Z,9.60
2022-11-30T11:22:05.339Z,9.50
2022-11-30T11:24:32.884Z,9.50
2022-11-30T11:27:01.177Z,9.40
2022-11-30T11:29:34.191Z,9.40
2022-11-30T11:32:20.164Z,9.40
2022-11-30T11:34:51.132Z,9.40
2022-11-30T11:37:17.787Z,9.60
2022-11-30T11:39:45.563Z,9.60
2022-11-30T11:42:22.172Z,9.50
2022-11-30T11:44:46.561Z,9.50
2022-11-30T11:47:26.196Z,9.50
2022-11-30T11:49:53.721Z,9.50
2022-11-30T11:52:21.246Z,9.50
2022-11-30T11:54:54.318Z,9.50
2022-11-30T11:57:21.848Z,9.50
2022-11-30T12:00:15.857Z,9.40
2022-11-30T12:02:39.197Z,9.40
2022-11-30T12:05:12.349Z,9.40
2022-11-30T12:07:42.456Z,9.40
2022-11-30T12:10:43.608Z,9.30
2022-11-30T12:12:48.427Z,9.60
2022-11-30T12:15:10.638Z,9.60
2022-11-30T12:17:43.854Z,9.60
2022-11-30T12:20:23.625Z,9.80
2022-11-30T12:22:59.836Z,9.80
2022-11-30T12:25:39.226Z,10.00
2022-11-30T12:28:07.531Z,9.90
2022-11-30T12:30:40.852Z,9.90
2022-11-30T12:33:27.134Z,9.80
2022-11-30T12:36:10.088Z,9.80
2022-11-30T12:38:52.585Z,9.70
2022-11-30T12:41:28.929Z,9.60
2022-11-30T12:44:02.447Z,9.60
2022-11-30T12:46:30.060Z,9.60
2022-11-30T12:49:12.709Z,9.50
2022-11-30T12:51:58.215Z,9.50
2022-11-30T12:54:47.623Z,9.50
2022-11-30T12:57:26.563Z,9.50
2022-11-30T13:00:12.461Z,9.70
2022-11-30T13:02:45.795Z,9.70
2022-11-30T13:05:15.958Z,9.70
2022-11-30T13:07:43.575Z,9.70
2022-11-30T13:10:19.312Z,9.60
2022-11-30T13:12:47.454Z,9.60
2022-11-30T13:15:20.354Z,9.70
2022-11-30T13:17:47.879Z,9.70
2022-11-30T13:20:24.749Z,9.70
2022-11-30T13:23:19.903Z,9.70
2022-11-30T13:26:08.293Z,9.60
2022-11-30T13:28:42.972Z,9.60
2022-11-30T13:31:40.756Z,9.60
2022-11-30T13:34:08.192Z,9.60
2022-11-30T13:36:41.900Z,9.60
2022-11-30T13:39:15.798Z,9.60
2022-11-30T13:41:43.611Z,9.60
2022-11-30T13:44:32.213Z,9.60
2022-11-30T13:47:02.375Z,9.60
2022-11-30T13:49:29.843Z,9.60
2022-11-30T13:52:21.588Z,9.60
2022-11-30T13:54:44.211Z,9.70
2022-11-30T13:57:17.591Z,9.70
2022-11-30T13:59:48.020Z,9.70
2022-11-30T14:02:33.983Z,9.90
2022-11-30T14:05:16.548Z,10.00
2022-11-30T14:07:53.179Z,9.90
2022-11-30T14:10:33.102Z,9.80
2022-11-30T14:13:03.347Z,9.70
2022-11-30T14:15:40.045Z,9.70
2022-11-30T14:18:10.385Z,9.60
2022-11-30T14:20:46.576Z,9.60
2022-11-30T14:23:14.445Z,9.50
2022-11-30T14:25:48.035Z,9.40
2022-11-30T14:28:18.488Z,9.30
2022-11-30T14:30:45.803Z,9.20
2022-11-30T14:33:19.512Z,9.10
2022-11-30T14:35:44.436Z,9.10
2022-11-30T14:38:14.660Z,9.40
2022-11-30T14:40:42.195Z,9.40
2022-11-30T14:43:09.778Z,9.20
2022-11-30T14:45:37.305Z,9.10
2022-11-30T14:48:08.521Z,8.80
2022-11-30T14:50:36.093Z,8.80
2022-11-30T14:53:12.490Z,8.70
2022-11-30T14:55:58.003Z,8.60
2022-11-30T14:58:40.879Z,8.50
2022-11-30T15:01:18.135Z,8.30
2022-11-30T15:03:45.637Z,8.30
2022-11-30T15:06:15.840Z,8.20
2022-11-30T15:08:46.724Z,8.20
2022-11-30T15:11:14.277Z,8.20
2022-11-30T15:13:41.811Z,8.10
2022-11-30T15:16:21.407Z,8.10
2022-11-30T15:18:48.894Z,8.10
2022-11-30T15:21:22.799Z,8.00
2022-11-30T15:23:51.718Z,8.00
2022-11-30T15:26:37.418Z,7.90
2022-11-30T15:29:10.441Z,8.10
2022-11-30T15:31:38.006Z,8.00
2022-11-30T15:34:05.530Z,8.20
2022-11-30T15:36:36.235Z,8.20
2022-11-30T15:39:03.771Z,8.00
2022-11-30T15:41:32.073Z,7.90
2022-11-30T15:43:59.649Z,7.90
2022-11-30T15:46:44.500Z,7.80
2022-11-30T15:49:24.108Z,7.80
2022-11-30T15:52:01.390Z,7.90
2022-11-30T15:54:50.794Z,7.90
2022-11-30T15:57:18.317Z,7.90
2022-11-30T16:00:04.945Z,7.70
2022-11-30T16:02:32.568Z,7.70
2022-11-30T16:05:10.880Z,7.60
2022-11-30T16:07:34.204Z,7.60
2022-11-30T16:10:07.745Z,7.60
2022-11-30T16:12:35.282Z,7.70
2022-11-30T16:15:02.877Z,8.00
2022-11-30T16:17:31.177Z,8.30
2022-11-30T16:19:58.769Z,8.20
2022-11-30T16:22:26.265Z,8.10
2022-11-30T16:24:54.571Z,7.80
2022-11-30T16:27:22.122Z,7.80
2022-11-30T16:29:52.557Z,7.60
2022-11-30T16:32:18.083Z,7.60
2022-11-30T16:34:45.544Z,7.50
2022-11-30T16:37:13.118Z,7.70
2022-11-30T16:39:40.662Z,8.00
2022-11-30T16:42:08.189Z,7.90
2022-11-30T16:44:36.539Z,7.70
2022-11-30T16:47:04.066Z,7.70
2022-11-30T16:49:31.592Z,7.60
2022-11-30T16:51:59.155Z,7.80
2022-11-30T16:54:26.689Z,7.80
2022-11-30T16:56:54.990Z,7.60
2022-11-30T16:59:22.831Z,7.60
2022-11-30T17:01:54.000Z,7.50
2022-11-30T17:04:24.292Z,7.50
2022-11-30T17:06:54.800Z,7.40
2022-11-30T17:09:19.509Z,7.40
2022-11-30T17:11:47.045Z,7.30
2022-11-30T17:14:14.618Z,7.30
2022-11-30T17:16:42.193Z,7.30
2022-11-30T17:19:09.666Z,7.50
2022-11-30T17:21:38.008Z,7.70
2022-11-30T17:24:05.582Z,7.70
2022-11-30T17:26:33.127Z,7.60
2022-11-30T17:29:01.057Z,7.60
2022-11-30T17:31:28.656Z,7.50
2022-11-30T17:33:56.873Z,7.40
2022-11-30T17:36:24.467Z,7.40
2022-11-30T17:38:52.002Z,7.40
2022-11-30T17:41:20.090Z,7.40
2022-11-30T17:43:48.155Z,7.30
2022-11-30T17:46:15.896Z,7.40
2022-11-30T17:48:43.215Z,7.30
2022-11-30T17:51:10.907Z,7.30
2022-11-30T17:53:39.093Z,7.60
2022-11-30T17:56:06.713Z,7.60
2022-11-30T17:58:37.871Z,7.60
2022-11-30T18:01:02.224Z,7.50
2022-11-30T18:03:29.683Z,7.50
2022-11-30T18:06:00.840Z,7.50
2022-11-30T18:08:28.377Z,7.50
2022-11-30T18:10:55.914Z,7.70
2022-11-30T18:13:23.493Z,7.60
2022-11-30T18:15:51.020Z,7.60
2022-11-30T18:18:18.550Z,7.50
2022-11-30T18:20:46.162Z,7.50
2022-11-30T18:23:13.696Z,7.50
2022-11-30T18:25:41.231Z,7.50
2022-11-30T18:28:09.569Z,7.40
2022-11-30T18:30:37.229Z,7.40
2022-11-30T18:33:04.736Z,7.40
2022-11-30T18:35:33.069Z,7.60
2022-11-30T18:38:00.603Z,7.60
2022-11-30T18:40:28.125Z,7.50
2022-11-30T18:42:56.872Z,7.50
2022-11-30T18:45:24.396Z,7.50
2022-11-30T18:47:51.927Z,7.40
2022-11-30T18:50:20.289Z,7.30
2022-11-30T18:52:47.803Z,7.30
2022-11-30T18:55:15.327Z,7.30
2022-11-30T18:57:43.669Z,7.20
2022-11-30T19:00:11.283Z,7.20
2022-11-30T19:02:38.896Z,7.20
2022-11-30T19:05:11.890Z,7.40
2022-11-30T19:07:33.977Z,7.60
2022-11-30T19:10:01.476Z,7.50
2022-11-30T19:12:29.705Z,7.50
2022-11-30T19:14:57.231Z,7.40
2022-11-30T19:17:25.534Z,7.50
2022-11-30T19:19:53.117Z,7.50
2022-11-30T19:22:20.642Z,7.60
2022-11-30T19:24:48.468Z,7.60
2022-11-30T19:27:16.697Z,7.50
2022-11-30T19:29:44.230Z,7.40
2022-11-30T19:32:11.765Z,7.30
2022-11-30T19:34:39.330Z,7.30
2022-11-30T19:37:06.854Z,7.20
2022-11-30T19:39:34.389Z,7.20
2022-11-30T19:42:01.982Z,7.20
2022-11-30T19:44:29.517Z,7.10
2022-11-30T19:46:57.053Z,7.20
2022-11-30T19:49:24.621Z,7.30
2022-11-30T19:51:52.164Z,7.30
2022-11-30T19:54:19.695Z,7.30
2022-11-30T19:56:48.226Z,7.30
2022-11-30T19:59:15.750Z,7.30
2022-11-30T20:01:44.141Z,7.30
2022-11-30T20:04:11.621Z,7.30
2022-11-30T20:06:39.152Z,7.30
2022-11-30T20:09:07.461Z,7.20
2022-11-30T20:11:35.414Z,7.20
2022-11-30T20:14:02.937Z,7.30
2022-11-30T20:16:31.259Z,7.20
2022-11-30T20:18:59.564Z,7.20
2022-11-30T20:21:27.108Z,7.30
2022-11-30T20:23:54.649Z,7.30
2022-11-30T20:26:22.205Z,7.20
2022-11-30T20:28:49.732Z,7.30
2022-11-30T20:31:18.065Z,7.30
2022-11-30T20:33:45.607Z,7.30
2022-11-30T20:36:13.144Z,7.30
2022-11-30T20:38:40.667Z,7.30
2022-11-30T20:41:10.862Z,7.30
2022-11-30T20:43:38.417Z,7.30
2022-11-30T20:46:11.918Z,7.30
2022-11-30T20:48:40.249Z,7.40
2022-11-30T20:51:30.229Z,7.30
2022-11-30T20:53:41.817Z,7.30
2022-11-30T20:56:10.199Z,7.40
2022-11-30T20:58:37.696Z,7.30
2022-11-30T21:01:17.253Z,7.40
2022-11-30T21:03:44.737Z,7.40
2022-11-30T21:06:12.261Z,7.40
2022-11-30T21:08:39.825Z,7.40
2022-11-30T21:11:07.391Z,7.40
2022-11-30T21:13:34.924Z,7.40
2022-11-30T21:16:02.624Z,7.60
2022-11-30T21:18:30.841Z,7.50
2022-11-30T21:21:01.220Z,7.50
2022-11-30T21:23:28.786Z,7.50
2022-11-30T21:25:56.359Z,7.40
2022-11-30T21:28:23.884Z,7.60
2022-11-30T21:30:51.531Z,7.80
2022-11-30T21:33:19.003Z,7.80
2022-11-30T21:35:46.555Z,7.70
2022-11-30T21:38:14.115Z,7.60
2022-11-30T21:40:41.647Z,7.50
2022-11-30T21:43:09.171Z,7.50
2022-11-30T21:45:36.755Z,7.40
2022-11-30T21:48:04.280Z,7.40
2022-11-30T21:50:31.835Z,7.30
2022-11-30T21:52:59.390Z,7.30
2022-11-30T21:55:26.915Z,7.30
2022-11-30T21:57:54.440Z,7.30
2022-11-30T22:00:22.783Z,7.50
2022-11-30T22:02:50.367Z,7.50
2022-11-30T22:05:17.854Z,7.50
2022-11-30T22:07:45.494Z,7.50
2022-11-30T22:10:12.959Z,7.40
2022-11-30T22:12:40.494Z,7.60
2022-11-30T22:15:08.964Z,7.60
2022-11-30T22:17:36.499Z,7.60
2022-11-30T22:20:04.044Z,7.60
2022-11-30T22:22:31.609Z,7.50
2022-11-30T22:24:59.137Z,7.50
2022-11-30T22:27:26.670Z,7.40
2022-11-30T22:29:55.029Z,7.30
2022-11-30T22:32:22.575Z,7.40
2022-11-30T22:34:50.108Z,7.30
2022-11-30T22:37:17.723Z,7.50
2022-11-30T22:39:45.408Z,7.80
2022-11-30T22:42:12.771Z,7.80
2022-11-30T22:44:41.469Z,7.70
2022-11-30T22:47:09.086Z,7.70
2022-11-30T22:49:37.305Z,7.60
2022-11-30T22:52:04.890Z,7.60
2022-11-30T22:54:32.442Z,7.60
2022-11-30T22:56:59.952Z,7.50
2022-11-30T22:59:28.292Z,7.50
2022-11-30T23:01:55.836Z,7.50
2022-11-30T23:04:23.429Z,7.50
2022-11-30T23:06:50.936Z,7.50
2022-11-30T23:09:18.470Z,7.50
2022-11-30T23:11:45.997Z,7.40
2022-11-30T23:14:13.590Z,7.40
2022-11-30T23:16:41.249Z,7.40
2022-11-30T23:19:08.651Z,7.70
2022-11-30T23:21:41.063Z,7.70
2022-11-30T23:24:03.826Z,7.70
2022-11-30T23:26:31.364Z,7.60
2022-11-30T23:28:58.935Z,7.60
2022-11-30T23:31:32.360Z,7.50
2022-11-30T23:33:54.823Z,7.50
2022-11-30T23:36:22.395Z,7.50
2022-11-30T23:38:49.921Z,7.50
2022-11-30T23:41:17.458Z,7.50
2022-11-30T23:43:45.798Z,7.50
2022-11-30T23:46:13.407Z,7.50
2022-11-30T23:48:40.889Z,7.50
2022-11-30T23:51:08.727Z,7.70
2022-11-30T23:53:36.261Z,7.70
2022-11-30T23:56:04.566Z,7.70
2022-11-30T23:58:32.138Z,7.70
